Time;durP1;ratioP1;P1;durP2;ratioP2;P2;SDS_P1;SDS_P2;PMS_P1;PMS_P2;Temp;Humidity;BMP_temperature;BMP_pressure;BME280_temperature;BME280_humidity;BME280_pressure;Samples;Min_cycle;Max_cycle;Signal;HPM_P1;HPM_P2
2023/12/25 00:00:05;;;;;;;4.97;2.72;;;;;;;;;;5019877;28;20085;-69
2023/12/25 00:02:34;;;;;;;12.98;2.47;;;;;;;;;;5025635;28;20385;-68
2023/12/25 00:05:00;;;;;;;6.05;3.05;;;;;;;;;;5025710;28;20030;-68
2023/12/25 00:07:26;;;;;;;7.60;3.17;;;;;;;;;;5028867;28;20029;-69
2023/12/25 00:09:53;;;;;;;10.10;2.58;;;;;;;;;;5052965;28;20025;-69
2023/12/25 00:12:19;;;;;;;8.68;2.40;;;;;;;;;;5027756;28;20021;-69
2023/12/25 00:14:45;;;;;;;8.82;3.25;;;;;;;;;;5020605;28;20143;-69
2023/12/25 00:17:13;;;;;;;3.83;2.25;;;;;;;;;;5028321;28;20036;-69
2023/12/25 00:19:39;;;;;;;5.82;2.10;;;;;;;;;;5020360;28;20021;-68
2023/12/25 00:22:05;;;;;;;7.65;2.25;;;;;;;;;;5022401;28;20052;-68
2023/12/25 00:24:31;;;;;;;9.68;2.42;;;;;;;;;;5020231;28;20385;-69
2023/12/25 00:26:57;;;;;;;9.07;2.75;;;;;;;;;;5027993;28;20014;-68
2023/12/25 00:29:24;;;;;;;8.82;2.38;;;;;;;;;;5028062;28;20110;-69
2023/12/25 00:31:50;;;;;;;3.92;2.08;;;;;;;;;;5022226;28;20171;-69
2023/12/25 00:34:17;;;;;;;8.70;2.33;;;;;;;;;;5026807;28;20282;-68
2023/12/25 00:36:43;;;;;;;8.65;3.13;;;;;;;;;;5025332;28;20037;-69
2023/12/25 00:39:10;;;;;;;12.02;3.00;;;;;;;;;;5026778;28;20535;-69
2023/12/25 00:41:38;;;;;;;4.07;2.05;;;;;;;;;;5023395;28;20389;-69
2023/12/25 00:44:04;;;;;;;5.18;2.03;;;;;;;;;;5024287;28;20590;-67
2023/12/25 00:46:30;;;;;;;7.57;2.90;;;;;;;;;;5023849;28;20061;-69
2023/12/25 00:48:57;;;;;;;7.97;2.28;;;;;;;;;;5017002;28;20037;-69
2023/12/25 00:51:25;;;;;;;6.75;1.98;;;;;;;;;;5025115;28;20030;-69
2023/12/25 00:53:51;;;;;;;2.28;1.88;;;;;;;;;;5021767;28;20287;-69
2023/12/25 00:56:17;;;;;;;9.88;2.65;;;;;;;;;;5019018;28;20130;-69
2023/12/25 00:58:44;;;;;;;12.77;5.50;;;;;;;;;;5017892;28;20501;-69
2023/12/25 01:01:10;;;;;;;13.63;3.70;;;;;;;;;;5022998;28;20032;-69
2023/12/25 01:03:37;;;;;;;7.20;2.42;;;;;;;;;;5017793;28;20026;-68
2023/12/25 01:06:03;;;;;;;8.52;2.22;;;;;;;;;;5018995;28;20061;-69
2023/12/25 01:08:29;;;;;;;6.97;3.20;;;;;;;;;;5020458;28;20018;-68
2023/12/25 01:10:55;;;;;;;4.28;2.35;;;;;;;;;;5023301;28;20075;-69
2023/12/25 01:13:21;;;;;;;3.58;2.42;;;;;;;;;;5039110;28;20484;-69
2023/12/25 01:15:48;;;;;;;3.85;2.58;;;;;;;;;;5020578;28;20034;-68
2023/12/25 01:18:14;;;;;;;4.53;3.08;;;;;;;;;;5022500;28;20029;-69
2023/12/25 01:20:40;;;;;;;7.07;2.90;;;;;;;;;;5026975;28;20503;-69
2023/12/25 01:23:07;;;;;;;16.92;3.78;;;;;;;;;;5025701;28;20061;-68
2023/12/25 01:25:33;;;;;;;4.65;3.03;;;;;;;;;;5021811;28;20100;-69
2023/12/25 01:27:59;;;;;;;5.10;2.53;;;;;;;;;;5020640;28;20031;-68
2023/12/25 01:30:25;;;;;;;6.95;2.45;;;;;;;;;;5026077;28;20045;-68
2023/12/25 01:32:51;;;;;;;9.48;2.65;;;;;;;;;;5023731;28;20036;-69
2023/12/25 01:35:18;;;;;;;2.92;2.45;;;;;;;;;;5025987;28;20044;-69
2023/12/25 01:37:44;;;;;;;6.50;1.70;;;;;;;;;;5027142;28;20378;-69
2023/12/25 01:40:10;;;;;;;8.98;2.90;;;;;;;;;;5026053;28;20531;-68
2023/12/25 01:42:37;;;;;;;6.40;2.90;;;;;;;;;;5022139;28;20079;-69
2023/12/25 01:45:03;;;;;;;7.88;2.30;;;;;;;;;;5021754;28;20053;-69
2023/12/25 01:47:30;;;;;;;4.82;2.75;;;;;;;;;;5023929;28;20045;-68
2023/12/25 01:49:56;;;;;;;10.98;2.60;;;;;;;;;;5022484;28;20039;-69
2023/12/25 01:52:22;;;;;;;7.80;2.28;;;;;;;;;;5019487;28;20025;-69
2023/12/25 01:54:49;;;;;;;5.50;2.72;;;;;;;;;;5027258;28;20120;-68
2023/12/25 01:57:15;;;;;;;9.98;2.13;;;;;;;;;;5019660;28;20083;-69
2023/12/25 01:59:41;;;;;;;9.15;2.30;;;;;;;;;;5022545;28;20026;-69
2023/12/25 02:02:07;;;;;;;11.32;2.58;;;;;;;;;;5017686;28;20041;-69
2023/12/25 02:04:34;;;;;;;5.95;2.25;;;;;;;;;;5026552;28;20046;-69
2023/12/25 02:07:00;;;;;;;8.23;3.15;;;;;;;;;;5018424;28;20029;-69
2023/12/25 02:09:29;;;;;;;9.73;2.47;;;;;;;;;;5015788;28;20381;-68
2023/12/25 02:11:55;;;;;;;5.13;2.05;;;;;;;;;;5020550;28;20378;-69
2023/12/25 02:14:22;;;;;;;8.20;2.00;;;;;;;;;;5018575;28;20020;-69
2023/12/25 02:16:48;;;;;;;5.07;1.90;;;;;;;;;;5022889;28;20036;-69
2023/12/25 02:19:34;;;;;;;3.67;1.95;;;;;;;;;;5029449;28;20489;-69
2023/12/25 02:22:01;;;;;;;2.33;2.03;;;;;;;;;;5017287;28;20026;-69
2023/12/25 02:24:31;;;;;;;5.60;2.20;;;;;;;;;;5017568;28;20470;-68
2023/12/25 02:26:57;;;;;;;3.88;1.90;;;;;;;;;;5026290;28;20025;-68
2023/12/25 02:29:24;;;;;;;6.05;2.28;;;;;;;;;;5025415;28;20038;-69
2023/12/25 02:31:50;;;;;;;6.95;1.80;;;;;;;;;;5027010;28;20104;-69
2023/12/25 02:34:17;;;;;;;2.97;2.10;;;;;;;;;;5026989;28;20029;-68
2023/12/25 02:36:43;;;;;;;5.28;2.13;;;;;;;;;;5017938;28;20049;-68
2023/12/25 02:39:09;;;;;;;3.75;1.80;;;;;;;;;;5024822;28;20504;-67
2023/12/25 02:41:35;;;;;;;8.13;2.30;;;;;;;;;;5025926;28;20548;-69
2023/12/25 02:44:02;;;;;;;5.20;2.05;;;;;;;;;;5021784;28;20032;-69
2023/12/25 02:46:29;;;;;;;8.68;2.10;;;;;;;;;;5018056;28;20029;-68
2023/12/25 02:48:55;;;;;;;9.23;2.60;;;;;;;;;;5021983;28;20112;-69
2023/12/25 02:51:21;;;;;;;5.18;1.75;;;;;;;;;;5019484;28;20030;-69
2023/12/25 02:53:48;;;;;;;6.80;2.25;;;;;;;;;;5022662;28;20033;-69
2023/12/25 02:56:14;;;;;;;6.32;2.33;;;;;;;;;;5023189;28;20428;-69
2023/12/25 02:58:40;;;;;;;10.68;2.55;;;;;;;;;;5021230;28;20069;-69
2023/12/25 03:01:06;;;;;;;8.93;2.63;;;;;;;;;;5018249;28;20068;-68
2023/12/25 03:03:32;;;;;;;6.65;2.10;;;;;;;;;;5021245;28;20025;-69
2023/12/25 03:05:58;;;;;;;15.10;2.20;;;;;;;;;;5021689;28;20079;-69
2023/12/25 03:08:24;;;;;;;3.38;1.63;;;;;;;;;;5024451;28;20485;-69
2023/12/25 03:10:51;;;;;;;7.22;1.92;;;;;;;;;;5021745;28;20117;-68
2023/12/25 03:13:17;;;;;;;9.77;2.30;;;;;;;;;;5027248;28;20033;-68
2023/12/25 03:15:43;;;;;;;10.30;2.22;;;;;;;;;;5016670;28;20030;-69
2023/12/25 03:18:09;;;;;;;3.03;1.83;;;;;;;;;;5022202;28;20037;-69
2023/12/25 03:20:36;;;;;;;6.82;2.20;;;;;;;;;;5017282;28;20026;-69
2023/12/25 03:23:02;;;;;;;5.95;2.33;;;;;;;;;;5019268;28;20458;-69
2023/12/25 03:25:28;;;;;;;8.38;1.88;;;;;;;;;;5020740;28;20026;-68
2023/12/25 03:27:54;;;;;;;12.23;2.50;;;;;;;;;;5021927;28;20033;-69
2023/12/25 03:30:21;;;;;;;9.68;2.33;;;;;;;;;;5019558;28;20038;-70
2023/12/25 03:32:47;;;;;;;4.30;2.03;;;;;;;;;;5023305;28;20033;-68
2023/12/25 03:35:13;;;;;;;9.45;2.35;;;;;;;;;;5017772;28;20071;-69
2023/12/25 03:37:39;;;;;;;4.88;1.73;;;;;;;;;;5021263;28;20032;-69
2023/12/25 03:40:06;;;;;;;5.63;3.38;;;;;;;;;;5019249;28;20489;-69
2023/12/25 03:42:32;;;;;;;10.15;3.78;;;;;;;;;;5042312;28;20164;-69
2023/12/25 03:45:00;;;;;;;9.43;1.90;;;;;;;;;;5016575;28;20021;-69
2023/12/25 03:47:28;;;;;;;5.22;2.03;;;;;;;;;;5024469;28;20097;-72
2023/12/25 03:49:55;;;;;;;9.60;2.72;;;;;;;;;;5046752;28;20033;-69
2023/12/25 03:52:21;;;;;;;8.50;2.35;;;;;;;;;;5023827;28;20025;-69
2023/12/25 03:54:47;;;;;;;7.68;2.55;;;;;;;;;;5029267;28;20021;-68
2023/12/25 03:57:14;;;;;;;8.02;2.50;;;;;;;;;;5028644;28;20033;-68
2023/12/25 03:59:40;;;;;;;4.70;3.78;;;;;;;;;;5026363;28;20088;-68
2023/12/25 04:02:06;;;;;;;13.85;3.03;;;;;;;;;;5023066;28;20048;-69
2023/12/25 04:04:36;;;;;;;5.45;2.20;;;;;;;;;;5023714;28;20034;-69
2023/12/25 04:07:02;;;;;;;4.57;2.30;;;;;;;;;;5020815;28;20029;-69
2023/12/25 04:09:28;;;;;;;11.05;3.00;;;;;;;;;;5019392;28;20108;-69
2023/12/25 04:11:54;;;;;;;10.93;2.40;;;;;;;;;;5024632;28;20029;-69
2023/12/25 04:14:21;;;;;;;8.07;3.40;;;;;;;;;;5022557;28;20651;-68
2023/12/25 04:16:47;;;;;;;7.65;2.40;;;;;;;;;;5022327;28;20041;-68
2023/12/25 04:19:13;;;;;;;12.13;2.45;;;;;;;;;;5022843;28;20217;-69
2023/12/25 04:21:42;;;;;;;6.82;2.33;;;;;;;;;;5021308;28;20026;-68
2023/12/25 04:24:08;;;;;;;13.05;3.00;;;;;;;;;;5018190;28;20032;-69
2023/12/25 04:26:34;;;;;;;8.35;2.38;;;;;;;;;;5020832;28;20465;-68
2023/12/25 04:29:01;;;;;;;7.95;2.40;;;;;;;;;;5024927;28;20049;-68
2023/12/25 04:31:27;;;;;;;11.35;2.80;;;;;;;;;;5020993;28;20029;-69
2023/12/25 04:33:53;;;;;;;8.13;2.30;;;;;;;;;;5022251;28;20044;-68
2023/12/25 04:36:19;;;;;;;9.30;2.47;;;;;;;;;;5018150;28;20022;-69
2023/12/25 04:38:49;;;;;;;9.57;3.15;;;;;;;;;;5017322;28;20025;-68
2023/12/25 04:41:20;;;;;;;9.60;2.63;;;;;;;;;;5025781;28;20060;-69
2023/12/25 04:43:46;;;;;;;8.07;2.17;;;;;;;;;;5018154;28;20441;-69
2023/12/25 04:46:13;;;;;;;6.32;2.33;;;;;;;;;;5021593;28;20109;-69
2023/12/25 04:48:39;;;;;;;6.05;1.63;;;;;;;;;;5018548;28;20017;-68
2023/12/25 04:51:05;;;;;;;3.47;2.00;;;;;;;;;;5021348;28;20615;-69
2023/12/25 04:53:33;;;;;;;2.75;2.00;;;;;;;;;;5023746;28;20029;-68
2023/12/25 04:55:59;;;;;;;5.53;1.70;;;;;;;;;;5014398;28;20025;-68
2023/12/25 04:58:26;;;;;;;1.55;1.45;;;;;;;;;;5026082;28;20045;-67
2023/12/25 05:00:52;;;;;;;5.38;2.33;;;;;;;;;;5023819;28;20036;-69
2023/12/25 05:03:19;;;;;;;2.95;1.73;;;;;;;;;;5019020;28;20037;-69
2023/12/25 05:05:45;;;;;;;6.28;2.28;;;;;;;;;;5023996;28;20053;-68
2023/12/25 05:08:11;;;;;;;5.47;2.10;;;;;;;;;;5017597;28;20021;-69
2023/12/25 05:10:37;;;;;;;10.18;2.03;;;;;;;;;;5022192;28;20424;-69
2023/12/25 05:13:03;;;;;;;3.38;2.08;;;;;;;;;;5020707;28;20061;-70
2023/12/25 05:15:29;;;;;;;5.50;2.05;;;;;;;;;;5016486;28;20203;-69
2023/12/25 05:17:56;;;;;;;5.25;2.03;;;;;;;;;;5020341;28;20032;-69
2023/12/25 05:20:22;;;;;;;7.97;2.10;;;;;;;;;;5018316;28;20311;-68
2023/12/25 05:22:48;;;;;;;8.38;2.30;;;;;;;;;;5017295;28;20488;-69
2023/12/25 05:25:14;;;;;;;5.55;1.90;;;;;;;;;;5015273;28;20076;-69
2023/12/25 05:27:40;;;;;;;7.03;1.95;;;;;;;;;;5021683;28;20030;-68
2023/12/25 05:30:08;;;;;;;4.57;1.83;;;;;;;;;;5022336;28;20018;-69
2023/12/25 05:32:35;;;;;;;13.30;2.42;;;;;;;;;;5025221;28;20064;-69
2023/12/25 05:35:04;;;;;;;8.90;1.95;;;;;;;;;;5023118;28;20045;-69
2023/12/25 05:37:30;;;;;;;9.63;2.55;;;;;;;;;;5022732;28;20033;-69
2023/12/25 05:39:56;;;;;;;2.55;1.50;;;;;;;;;;5023567;28;20531;-67
2023/12/25 05:42:22;;;;;;;7.32;2.15;;;;;;;;;;5022554;28;20057;-69
2023/12/25 05:44:49;;;;;;;7.30;2.00;;;;;;;;;;5019853;28;20029;-68
2023/12/25 05:47:15;;;;;;;5.35;2.17;;;;;;;;;;5021502;28;20025;-69
2023/12/25 05:49:41;;;;;;;14.35;2.42;;;;;;;;;;5017638;28;20060;-70
2023/12/25 05:52:07;;;;;;;9.02;2.25;;;;;;;;;;5013425;28;20045;-69
2023/12/25 05:54:34;;;;;;;5.90;2.13;;;;;;;;;;5021407;28;20033;-69
2023/12/25 05:57:00;;;;;;;7.55;2.67;;;;;;;;;;5019457;28;20044;-68
2023/12/25 05:59:29;;;;;;;10.40;2.92;;;;;;;;;;5019960;28;20069;-69
2023/12/25 06:01:56;;;;;;;6.20;2.20;;;;;;;;;;5024139;28;20074;-68
2023/12/25 06:04:22;;;;;;;12.95;2.45;;;;;;;;;;5020790;28;20025;-69
2023/12/25 06:06:48;;;;;;;12.30;2.30;;;;;;;;;;5021341;28;20045;-69
2023/12/25 06:09:14;;;;;;;7.18;2.08;;;;;;;;;;5015709;28;20029;-69
2023/12/25 06:11:41;;;;;;;24.08;2.97;;;;;;;;;;5022407;28;20396;-68
2023/12/25 06:14:07;;;;;;;4.55;2.42;;;;;;;;;;5037741;28;20036;-69
2023/12/25 06:16:33;;;;;;;11.57;2.33;;;;;;;;;;5023477;28;20033;-69
2023/12/25 06:18:59;;;;;;;12.55;2.55;;;;;;;;;;5021681;28;20033;-69
2023/12/25 06:21:26;;;;;;;6.95;2.05;;;;;;;;;;5020903;28;20051;-68
2023/12/25 06:23:53;;;;;;;12.45;2.17;;;;;;;;;;5017334;28;20053;-69
2023/12/25 06:26:20;;;;;;;4.65;2.38;;;;;;;;;;5021088;28;20060;-69
2023/12/25 06:28:46;;;;;;;3.85;2.30;;;;;;;;;;5021411;28;20037;-68
2023/12/25 06:31:12;;;;;;;8.60;2.45;;;;;;;;;;5015918;28;20052;-68
2023/12/25 06:33:38;;;;;;;7.20;2.70;;;;;;;;;;5018217;28;20725;-68
2023/12/25 06:36:05;;;;;;;13.60;2.92;;;;;;;;;;5015956;28;20022;-69
2023/12/25 06:38:31;;;;;;;4.43;2.47;;;;;;;;;;5022142;28;20044;-69
2023/12/25 06:40:57;;;;;;;5.07;2.67;;;;;;;;;;5019931;28;20028;-69
2023/12/25 06:43:23;;;;;;;17.85;3.33;;;;;;;;;;5012618;28;20460;-69
2023/12/25 06:45:49;;;;;;;2.80;1.95;;;;;;;;;;5016467;28;20033;-68
2023/12/25 06:48:16;;;;;;;3.63;1.95;;;;;;;;;;5023842;28;20045;-69
2023/12/25 06:50:42;;;;;;;4.53;2.95;;;;;;;;;;5020658;28;20476;-67
2023/12/25 06:53:08;;;;;;;7.80;2.05;;;;;;;;;;5020618;28;20033;-69
2023/12/25 06:55:34;;;;;;;11.52;2.13;;;;;;;;;;5020056;28;20091;-69
2023/12/25 06:58:01;;;;;;;12.27;2.75;;;;;;;;;;5020010;28;20501;-69
2023/12/25 07:00:27;;;;;;;12.55;2.83;;;;;;;;;;5013409;28;20461;-69
2023/12/25 07:02:53;;;;;;;6.13;2.45;;;;;;;;;;5024399;28;20524;-69
2023/12/25 07:05:19;;;;;;;8.60;2.30;;;;;;;;;;5017723;28;20475;-69
2023/12/25 07:07:46;;;;;;;4.00;1.90;;;;;;;;;;5018004;28;20033;-69
2023/12/25 07:10:13;;;;;;;6.10;2.15;;;;;;;;;;5025254;28;20087;-69
2023/12/25 07:12:39;;;;;;;6.40;2.00;;;;;;;;;;5023008;28;20033;-70
2023/12/25 07:15:06;;;;;;;6.35;2.50;;;;;;;;;;5011868;28;20123;-69
2023/12/25 07:17:36;;;;;;;12.57;2.25;;;;;;;;;;5021734;28;20039;-68
2023/12/25 07:20:02;;;;;;;8.45;2.65;;;;;;;;;;5040986;28;20030;-69
2023/12/25 07:22:29;;;;;;;17.00;3.83;;;;;;;;;;5021773;28;20091;-69
2023/12/25 07:24:55;;;;;;;9.13;3.15;;;;;;;;;;5022383;28;20184;-68
2023/12/25 07:27:22;;;;;;;9.70;2.97;;;;;;;;;;5024856;28;20068;-68
2023/12/25 07:29:48;;;;;;;7.75;3.17;;;;;;;;;;5024082;28;20492;-68
2023/12/25 07:32:14;;;;;;;19.45;5.90;;;;;;;;;;5014985;28;20117;-69
2023/12/25 07:34:45;;;;;;;32.15;13.00;;;;;;;;;;5016992;28;20120;-68
2023/12/25 07:37:12;;;;;;;41.35;17.73;;;;;;;;;;5021467;28;20427;-69
2023/12/25 07:39:40;;;;;;;30.75;14.88;;;;;;;;;;5027279;28;20108;-69
2023/12/25 07:42:07;;;;;;;13.98;5.15;;;;;;;;;;5022791;28;20041;-69
2023/12/25 07:44:33;;;;;;;26.60;12.02;;;;;;;;;;5016437;28;20040;-69
2023/12/25 07:46:59;;;;;;;23.50;9.18;;;;;;;;;;5023186;28;20029;-69
2023/12/25 07:49:25;;;;;;;13.13;7.32;;;;;;;;;;5023107;28;20025;-69
2023/12/25 07:51:52;;;;;;;31.48;13.50;;;;;;;;;;5017583;28;20044;-69
2023/12/25 07:54:18;;;;;;;8.15;4.50;;;;;;;;;;5019489;28;20074;-69
2023/12/25 07:56:44;;;;;;;13.73;6.63;;;;;;;;;;5022781;28;20477;-69
2023/12/25 07:59:11;;;;;;;19.10;6.25;;;;;;;;;;5021121;28;20467;-69
2023/12/25 08:01:37;;;;;;;22.17;8.77;;;;;;;;;;5013526;28;20460;-69
2023/12/25 08:04:03;;;;;;;7.28;3.25;;;;;;;;;;5010576;28;20079;-68
2023/12/25 08:06:29;;;;;;;3.13;2.22;;;;;;;;;;5012501;28;20021;-68
2023/12/25 08:08:56;;;;;;;4.88;2.28;;;;;;;;;;5021107;28;20061;-69
2023/12/25 08:11:22;;;;;;;9.30;2.80;;;;;;;;;;5015744;28;20034;-68
2023/12/25 08:13:49;;;;;;;6.20;3.50;;;;;;;;;;5026621;28;20064;-69
2023/12/25 08:16:15;;;;;;;8.57;2.30;;;;;;;;;;5013985;28;20429;-68
2023/12/25 08:18:41;;;;;;;2.50;2.30;;;;;;;;;;5020697;28;20034;-68
2023/12/25 08:21:07;;;;;;;5.22;3.17;;;;;;;;;;5030050;28;20124;-69
2023/12/25 08:23:33;;;;;;;7.95;2.45;;;;;;;;;;5022752;28;20571;-69
2023/12/25 08:26:02;;;;;;;13.98;3.50;;;;;;;;;;5024078;28;20377;-69
2023/12/25 08:28:28;;;;;;;10.90;2.65;;;;;;;;;;5019067;28;20515;-69
2023/12/25 08:30:55;;;;;;;7.35;2.85;;;;;;;;;;5031472;28;20038;-68
2023/12/25 08:33:21;;;;;;;7.00;2.65;;;;;;;;;;5018905;28;20493;-68
2023/12/25 08:35:47;;;;;;;15.02;2.50;;;;;;;;;;5023486;28;20033;-69
2023/12/25 08:38:13;;;;;;;11.20;2.65;;;;;;;;;;5013779;28;20434;-68
2023/12/25 08:40:39;;;;;;;4.43;2.30;;;;;;;;;;5015366;28;20026;-69
2023/12/25 08:43:06;;;;;;;3.92;1.95;;;;;;;;;;5014281;28;20025;-69
2023/12/25 08:45:35;;;;;;;2.38;2.10;;;;;;;;;;5014614;28;20029;-69
2023/12/25 08:48:01;;;;;;;4.88;1.77;;;;;;;;;;5014078;28;20033;-68
2023/12/25 08:50:27;;;;;;;3.08;1.95;;;;;;;;;;5024200;28;20355;-68
2023/12/25 08:52:54;;;;;;;3.45;2.42;;;;;;;;;;5024091;28;20268;-68
2023/12/25 08:55:20;;;;;;;2.92;1.98;;;;;;;;;;5028552;28;20040;-68
2023/12/25 08:57:46;;;;;;;4.32;2.00;;;;;;;;;;5035685;28;20730;-69
2023/12/25 09:00:13;;;;;;;2.70;2.35;;;;;;;;;;5017946;28;20026;-68
2023/12/25 09:02:39;;;;;;;8.23;1.83;;;;;;;;;;5013275;28;20513;-68
2023/12/25 09:05:06;;;;;;;4.15;2.20;;;;;;;;;;5028358;28;20026;-67
2023/12/25 09:07:32;;;;;;;4.50;1.60;;;;;;;;;;5035348;28;20540;-68
2023/12/25 09:09:59;;;;;;;7.10;3.45;;;;;;;;;;5049706;28;20508;-67
2023/12/25 09:12:25;;;;;;;15.88;4.07;;;;;;;;;;5017394;28;20191;-68
2023/12/25 09:14:52;;;;;;;11.77;2.08;;;;;;;;;;5023125;28;20018;-68
2023/12/25 09:17:19;;;;;;;3.10;1.90;;;;;;;;;;5025266;28;20456;-68
2023/12/25 09:19:45;;;;;;;5.00;2.17;;;;;;;;;;5011940;28;20036;-68
2023/12/25 09:22:12;;;;;;;4.95;1.90;;;;;;;;;;5025683;28;20021;-67
2023/12/25 09:24:44;;;;;;;6.25;1.83;;;;;;;;;;5023993;28;20110;-67
2023/12/25 09:27:10;;;;;;;5.97;2.22;;;;;;;;;;5028044;28;20118;-68
2023/12/25 09:29:37;;;;;;;5.07;1.90;;;;;;;;;;5025582;28;20075;-68
2023/12/25 09:32:03;;;;;;;3.38;2.08;;;;;;;;;;5025826;28;20097;-67
2023/12/25 09:34:32;;;;;;;6.90;2.90;;;;;;;;;;5029389;28;20037;-67
2023/12/25 09:36:59;;;;;;;2.55;2.15;;;;;;;;;;5019268;28;20105;-66
2023/12/25 09:39:25;;;;;;;7.10;2.28;;;;;;;;;;5016249;28;20065;-67
2023/12/25 09:41:52;;;;;;;10.02;2.10;;;;;;;;;;5025307;28;20026;-68
2023/12/25 09:44:22;;;;;;;7.95;2.28;;;;;;;;;;5026910;28;20025;-68
2023/12/25 09:46:48;;;;;;;6.43;2.28;;;;;;;;;;5022397;28;20088;-67
2023/12/25 09:49:15;;;;;;;3.85;1.90;;;;;;;;;;5019019;28;20036;-68
2023/12/25 09:51:43;;;;;;;4.72;1.80;;;;;;;;;;5014787;28;20431;-68
2023/12/25 09:54:09;;;;;;;6.28;1.60;;;;;;;;;;5019380;28;20064;-69
2023/12/25 09:56:37;;;;;;;5.47;2.95;;;;;;;;;;5011775;28;20037;-68
2023/12/25 09:59:07;;;;;;;3.00;2.00;;;;;;;;;;5023380;28;20640;-68
2023/12/25 10:01:34;;;;;;;3.72;2.13;;;;;;;;;;5024852;28;20485;-68
2023/12/25 10:04:01;;;;;;;5.80;2.65;;;;;;;;;;5028915;28;20477;-68
2023/12/25 10:06:27;;;;;;;11.48;2.30;;;;;;;;;;5011541;28;20022;-67
2023/12/25 10:08:53;;;;;;;7.93;2.88;;;;;;;;;;5020056;28;20056;-68
2023/12/25 10:11:19;;;;;;;4.00;2.03;;;;;;;;;;5011929;28;20364;-69
2023/12/25 10:13:46;;;;;;;7.22;2.22;;;;;;;;;;5022958;28;20704;-68
2023/12/25 10:16:15;;;;;;;8.25;2.60;;;;;;;;;;5032623;28;20404;-68
2023/12/25 10:18:41;;;;;;;5.63;3.38;;;;;;;;;;5016857;28;20034;-69
2023/12/25 10:21:09;;;;;;;5.13;2.25;;;;;;;;;;5020062;28;20061;-68
2023/12/25 10:23:36;;;;;;;8.95;3.95;;;;;;;;;;5019629;28;20029;-70
2023/12/25 10:26:04;;;;;;;5.47;2.20;;;;;;;;;;5022070;28;20029;-69
2023/12/25 10:28:32;;;;;;;10.93;2.92;;;;;;;;;;5025386;28;20021;-69
2023/12/25 10:31:07;;;;;;;4.60;2.90;;;;;;;;;;5013284;28;20037;-69
2023/12/25 10:33:35;;;;;;;8.98;2.25;;;;;;;;;;5021642;28;20033;-68
2023/12/25 10:36:03;;;;;;;9.88;3.65;;;;;;;;;;5020551;28;20029;-69
2023/12/25 10:38:32;;;;;;;6.13;3.10;;;;;;;;;;5026304;28;20029;-68
2023/12/25 10:40:59;;;;;;;16.67;7.00;;;;;;;;;;5031355;28;20372;-69
2023/12/25 10:43:25;;;;;;;5.22;2.08;;;;;;;;;;5023913;28;20022;-68
2023/12/25 10:45:54;;;;;;;7.57;2.55;;;;;;;;;;5028224;28;20533;-68
2023/12/25 10:48:21;;;;;;;7.88;2.15;;;;;;;;;;5023346;28;20076;-68
2023/12/25 10:50:47;;;;;;;9.05;2.33;;;;;;;;;;5013597;28;20751;-69
2023/12/25 10:53:17;;;;;;;11.75;2.60;;;;;;;;;;5023251;28;20033;-68
2023/12/25 10:55:44;;;;;;;8.00;2.28;;;;;;;;;;5036389;28;20465;-68
2023/12/25 10:58:14;;;;;;;8.38;3.13;;;;;;;;;;5021964;28;20046;-69
2023/12/25 11:00:45;;;;;;;9.60;3.22;;;;;;;;;;5028736;28;20022;-68
2023/12/25 11:03:13;;;;;;;8.05;2.53;;;;;;;;;;5028972;28;20024;-69
2023/12/25 11:05:40;;;;;;;4.75;2.88;;;;;;;;;;5015776;28;20036;-68
2023/12/25 11:08:08;;;;;;;4.53;2.22;;;;;;;;;;5048748;28;20040;-68
2023/12/25 11:10:35;;;;;;;4.43;2.55;;;;;;;;;;5024337;28;20028;-69
2023/12/25 11:13:02;;;;;;;10.98;2.38;;;;;;;;;;5027958;28;20017;-69
2023/12/25 11:15:28;;;;;;;5.72;2.33;;;;;;;;;;5027267;28;20033;-68
2023/12/25 11:17:55;;;;;;;2.78;1.80;;;;;;;;;;5018259;28;20030;-69
2023/12/25 11:20:21;;;;;;;9.82;2.20;;;;;;;;;;5019772;28;20660;-68
2023/12/25 11:22:48;;;;;;;7.35;2.45;;;;;;;;;;5014244;28;20536;-68
2023/12/25 11:25:16;;;;;;;7.80;2.40;;;;;;;;;;5025225;28;20037;-68
2023/12/25 11:27:43;;;;;;;9.95;2.92;;;;;;;;;;5027198;28;20033;-68
2023/12/25 11:30:11;;;;;;;6.63;2.22;;;;;;;;;;5030391;28;20021;-68
2023/12/25 11:32:38;;;;;;;12.10;2.33;;;;;;;;;;5029089;28;20022;-70
2023/12/25 11:35:04;;;;;;;6.47;2.20;;;;;;;;;;5027148;28;20028;-69
2023/12/25 11:37:31;;;;;;;3.38;2.33;;;;;;;;;;5022367;28;20029;-69
2023/12/25 11:40:05;;;;;;;2.67;1.88;;;;;;;;;;5027347;28;20034;-70
2023/12/25 11:42:32;;;;;;;4.90;2.10;;;;;;;;;;5024167;28;20117;-69
2023/12/25 11:45:02;;;;;;;3.65;2.75;;;;;;;;;;5016831;28;20036;-69
2023/12/25 11:47:29;;;;;;;5.93;2.22;;;;;;;;;;5018464;28;20026;-69
2023/12/25 11:49:58;;;;;;;3.30;2.30;;;;;;;;;;5026504;28;20029;-69
2023/12/25 11:52:46;;;;;;;4.85;1.95;;;;;;;;;;5037345;28;20588;-69
2023/12/25 11:55:19;;;;;;;3.65;2.55;;;;;;;;;;5024710;28;20030;-69
2023/12/25 11:57:46;;;;;;;5.55;2.42;;;;;;;;;;5020529;28;20056;-70
2023/12/25 12:00:19;;;;;;;7.18;2.20;;;;;;;;;;5024008;28;20427;-70
2023/12/25 12:02:45;;;;;;;3.47;2.13;;;;;;;;;;5025523;28;20022;-69
2023/12/25 12:05:12;;;;;;;3.63;1.90;;;;;;;;;;5021260;28;20029;-69
2023/12/25 12:07:38;;;;;;;5.28;2.22;;;;;;;;;;5021981;28;20029;-69
2023/12/25 12:10:05;;;;;;;2.97;1.73;;;;;;;;;;5033200;28;20032;-69
2023/12/25 12:12:31;;;;;;;4.55;2.22;;;;;;;;;;5026282;28;20048;-68
2023/12/25 12:14:57;;;;;;;3.28;2.40;;;;;;;;;;5022279;28;20053;-69
2023/12/25 12:17:24;;;;;;;2.38;1.85;;;;;;;;;;5018942;28;20115;-68
2023/12/25 12:19:50;;;;;;;5.80;3.50;;;;;;;;;;5018677;28;20049;-68
2023/12/25 12:22:17;;;;;;;4.25;2.30;;;;;;;;;;5022021;28;20022;-68
2023/12/25 12:24:44;;;;;;;4.93;2.13;;;;;;;;;;5023789;28;20506;-68
2023/12/25 12:27:11;;;;;;;3.60;2.78;;;;;;;;;;5023727;28;20060;-69
2023/12/25 12:29:40;;;;;;;2.78;1.98;;;;;;;;;;5009415;28;20080;-69
2023/12/25 12:32:07;;;;;;;5.63;2.72;;;;;;;;;;5015534;28;20037;-68
2023/12/25 12:34:33;;;;;;;4.35;2.00;;;;;;;;;;5014928;28;20096;-69
2023/12/25 12:37:00;;;;;;;5.60;2.03;;;;;;;;;;5016906;28;20664;-69
2023/12/25 12:39:27;;;;;;;2.75;2.40;;;;;;;;;;5022504;28;20423;-68
2023/12/25 12:41:54;;;;;;;4.25;2.88;;;;;;;;;;5015770;28;20026;-67
2023/12/25 12:44:20;;;;;;;8.52;4.82;;;;;;;;;;5019730;28;20484;-68
2023/12/25 12:46:46;;;;;;;6.90;3.28;;;;;;;;;;5020096;28;20032;-69
2023/12/25 12:49:12;;;;;;;5.15;3.45;;;;;;;;;;5033667;28;20561;-68
2023/12/25 12:51:38;;;;;;;2.65;2.45;;;;;;;;;;5018715;28;20092;-68
2023/12/25 12:54:04;;;;;;;6.28;3.10;;;;;;;;;;5018715;28;20021;-68
2023/12/25 12:56:31;;;;;;;4.53;3.25;;;;;;;;;;5025771;28;20036;-68
2023/12/25 12:58:57;;;;;;;4.22;2.60;;;;;;;;;;5019292;28;20107;-68
2023/12/25 13:01:23;;;;;;;3.47;2.10;;;;;;;;;;5021814;28;20041;-68
2023/12/25 13:03:50;;;;;;;2.90;2.35;;;;;;;;;;5014355;28;20053;-68
2023/12/25 13:06:16;;;;;;;2.40;2.20;;;;;;;;;;5023273;28;20021;-68
2023/12/25 13:08:42;;;;;;;3.15;2.42;;;;;;;;;;5021776;28;20029;-68
2023/12/25 13:11:08;;;;;;;6.90;2.97;;;;;;;;;;5018223;28;20037;-69
2023/12/25 13:13:35;;;;;;;6.38;3.75;;;;;;;;;;5017957;28;20026;-69
2023/12/25 13:16:01;;;;;;;5.10;2.47;;;;;;;;;;5023850;28;20409;-68
2023/12/25 13:18:27;;;;;;;2.85;1.80;;;;;;;;;;5026503;28;20406;-67
2023/12/25 13:20:54;;;;;;;8.23;2.67;;;;;;;;;;5025701;28;20048;-69
2023/12/25 13:23:20;;;;;;;4.20;2.10;;;;;;;;;;5018215;28;20018;-70
2023/12/25 13:25:46;;;;;;;3.20;2.03;;;;;;;;;;5026331;28;20030;-69
2023/12/25 13:28:13;;;;;;;6.13;2.88;;;;;;;;;;5026667;28;20030;-69
2023/12/25 13:30:39;;;;;;;9.65;3.17;;;;;;;;;;5016658;28;20038;-69
2023/12/25 13:33:05;;;;;;;5.63;3.50;;;;;;;;;;5017572;28;20030;-68
2023/12/25 13:35:31;;;;;;;5.78;3.20;;;;;;;;;;5018611;28;20041;-68
2023/12/25 13:37:57;;;;;;;8.55;3.05;;;;;;;;;;5020353;28;20032;-68
2023/12/25 13:40:24;;;;;;;4.82;2.47;;;;;;;;;;5021149;28;20022;-69
2023/12/25 13:42:50;;;;;;;3.72;2.15;;;;;;;;;;5010547;28;20037;-68
2023/12/25 13:45:16;;;;;;;8.13;2.50;;;;;;;;;;5013948;28;20026;-68
2023/12/25 13:47:42;;;;;;;3.65;2.13;;;;;;;;;;5022714;28;20389;-69
2023/12/25 13:50:09;;;;;;;3.85;2.40;;;;;;;;;;5016223;28;20087;-68
2023/12/25 13:52:35;;;;;;;3.50;2.35;;;;;;;;;;5019268;28;20049;-67
2023/12/25 13:55:02;;;;;;;6.45;2.05;;;;;;;;;;5049391;28;20068;-68
2023/12/25 13:57:29;;;;;;;2.70;2.20;;;;;;;;;;5023910;28;20175;-68
2023/12/25 13:59:55;;;;;;;5.60;1.67;;;;;;;;;;5026496;28;20575;-69
2023/12/25 14:02:21;;;;;;;5.82;3.75;;;;;;;;;;5014585;28;20504;-68
2023/12/25 14:04:47;;;;;;;20.00;16.98;;;;;;;;;;5027139;28;20032;-68
2023/12/25 14:07:14;;;;;;;22.98;14.35;;;;;;;;;;5023556;28;20489;-68
2023/12/25 14:09:40;;;;;;;5.60;4.68;;;;;;;;;;5017108;28;20025;-69
2023/12/25 14:12:08;;;;;;;18.65;11.45;;;;;;;;;;5020041;28;20486;-67
2023/12/25 14:14:35;;;;;;;14.80;9.00;;;;;;;;;;5023119;28;20393;-69
2023/12/25 14:17:03;;;;;;;19.75;12.50;;;;;;;;;;5019863;28;20500;-69
2023/12/25 14:19:29;;;;;;;9.95;6.97;;;;;;;;;;5026799;28;20030;-69
2023/12/25 14:21:58;;;;;;;10.43;6.20;;;;;;;;;;5018312;28;20033;-68
2023/12/25 14:24:24;;;;;;;10.15;5.85;;;;;;;;;;5040795;28;20029;-69
2023/12/25 14:26:54;;;;;;;17.05;12.13;;;;;;;;;;5029534;28;20029;-67
2023/12/25 14:29:20;;;;;;;8.20;6.63;;;;;;;;;;5018299;28;20400;-69
2023/12/25 14:31:46;;;;;;;8.00;5.15;;;;;;;;;;5026912;28;20299;-68
2023/12/25 14:34:13;;;;;;;10.98;8.45;;;;;;;;;;5016913;28;20484;-68
2023/12/25 14:36:39;;;;;;;15.05;9.38;;;;;;;;;;5018936;28;20072;-69